Current Conditions

Updated: 13-Dec-2018 12:58 PM  
Summary / Temperature Wind Rain






Feels like: 59°F

1-hour difference
2.0°F 2.0°F warmer than last hour.

24-hour difference
4.2°F4.2°F warmer than yesterday at this time.

  Today Yesterday
High: 58.8°F
12:56 PM
55.1°F
1:11 PM
Low: 34.1°F
7:11 AM
38.8°F
11:54 PM
Calm WNW
0.0
Gust:  0.0 mph
0 Beaufort - Calm

Today: 3.5 - 4:33 AM
Month: 12.0 mph - Dec 4
Rain Today: 0.00 in
Current Rate (/hr): 0.000 in
Max Rate (/hr):
Rain Yesterday: 0.00 in
Storm Rain: 0.00 in
This Month: 0.28 in
Season Total: 2.02 in
Last Rain Event: 5 days ago
Humidity / Barometer Sun / Moon
Humidity: 66 Decreased 5.0% in the last hour.
Dew Point: 47.5°F  
Barometer: 30.259 inHg  
Baro Trend: Falling
Sunrise: 6:59 AM
Sunset: 4:42 PM
Moonrise: 11:34 AM
Moonset: 9:39 PM
Sky Conditions UV Index
Summary: Haze, Clear
Visibility: 5 miles
Clouds: None
KVIS - 11:56 AM PST
Current: 3.0  Moderate 
Thursday: 2.0  Low 
Friday: 2.0  Low 
Air Quality Fire Danger
 Moderate 
Ozone 20 ppb
PM 2.5 22 μg/m3
12:50 PM PST
Current: 5  Low 

Local Alerts Local Forecast
Local NWS Alerts
Today

Mostly
Sunny
High 61
Tonight

Hazy

Low 42
Fri

Hazy

High 62
Fri night

Partly
Cloudy
Low 40
Sat

Partly
Cloudy
High 62
Sat night

Partly
Cloudy
Low 42
Sun

Partly
Cloudy
High 64

Local Radar Local Satellite Neighborhood Cam Sky Cam
Local Radar Local Satellite Neighborhood Cam Sky Cam


Nearby Airport Stations

KVIS - Visalia, California, USA
Distance from station: W 14mi, 23km
Updated: Thu, 13-Dec-2018 11:56am PST
Haze, Clear
Haze, Clear
 Wind from calm
Wind: Calm
Temperature: 55°F , 13°C
Dew Point: 45°F , 7°C
Humidity: 67%
Barometer: 30.29 inHg , 1025.7 hPa
Summary: Haze
Clouds: Clear
Visibility: 5 miles , 8 km
2018/12/13 19:56 KVIS 131956Z AUTO 00000KT 5SM HZ CLR 13/07 A3029 RMK AO2 SLP267 T01280072
KPTV - Porterville, California, USA
Distance from station: SSE 19mi, 31km
Updated: Thu, 13-Dec-2018 11:56am PST
Clear
Clear
 Wind from WNW
Wind: WNW 3 mph , 6 km/h
Temperature: 57°F , 14°C
Dew Point: 45°F , 7°C
Humidity: 63%
Barometer: 30.29 inHg , 1025.7 hPa
Clouds: Clear
Visibility: 8 miles , 13 km
2018/12/13 19:56 KPTV 131956Z AUTO 30003KT 8SM CLR 14/07 A3029 RMK AO2 SLP270 T01390067

Metar display script from Saratoga-Weather.org



Visitor Map